sensor_id;sensor_type;location;lat;lon;timestamp;P1;durP1;ratioP1;P2;durP2;ratioP2
63089;SDS011;49174;43.198;27.824;2023-01-28T04:52:40;5.38;;;2.95;;
63089;SDS011;49174;43.198;27.824;2023-01-28T04:55:05;5.80;;;3.47;;
63089;SDS011;49174;43.198;27.824;2023-01-28T04:57:32;5.55;;;3.67;;
63089;SDS011;49174;43.198;27.824;2023-01-28T04:59:57;6.22;;;3.78;;
63089;SDS011;49174;43.198;27.824;2023-01-28T05:02:23;7.68;;;3.58;;
63089;SDS011;49174;43.198;27.824;2023-01-28T05:04:48;5.82;;;3.60;;
63089;SDS011;49174;43.198;27.824;2023-01-28T05:07:14;5.15;;;3.35;;
63089;SDS011;49174;43.198;27.824;2023-01-28T05:09:39;6.22;;;3.58;;
63089;SDS011;49174;43.198;27.824;2023-01-28T05:12:05;5.43;;;3.30;;
63089;SDS011;49174;43.198;27.824;2023-01-28T05:14:30;5.30;;;3.35;;
63089;SDS011;49174;43.198;27.824;2023-01-28T05:16:56;4.88;;;3.65;;
63089;SDS011;49174;43.198;27.824;2023-01-28T05:19:22;6.43;;;3.55;;
63089;SDS011;49174;43.198;27.824;2023-01-28T05:21:47;6.93;;;3.92;;
63089;SDS011;49174;43.198;27.824;2023-01-28T05:24:13;6.05;;;4.35;;
63089;SDS011;49174;43.198;27.824;2023-01-28T05:26:39;8.10;;;5.20;;
63089;SDS011;49174;43.198;27.824;2023-01-28T05:29:05;6.55;;;4.38;;
63089;SDS011;49174;43.198;27.824;2023-01-28T05:31:30;5.72;;;3.97;;
63089;SDS011;49174;43.198;27.824;2023-01-28T05:33:56;6.82;;;4.93;;
63089;SDS011;49174;43.198;27.824;2023-01-28T05:36:22;6.97;;;5.13;;
63089;SDS011;49174;43.198;27.824;2023-01-28T05:38:47;6.55;;;4.32;;
63089;SDS011;49174;43.198;27.824;2023-01-28T05:41:12;5.95;;;4.07;;
63089;SDS011;49174;43.198;27.824;2023-01-28T05:43:38;5.68;;;3.60;;
63089;SDS011;49174;43.198;27.824;2023-01-28T05:46:04;5.78;;;3.97;;
63089;SDS011;49174;43.198;27.824;2023-01-28T05:48:30;6.85;;;4.50;;
63089;SDS011;49174;43.198;27.824;2023-01-28T05:50:56;6.22;;;4.45;;
63089;SDS011;49174;43.198;27.824;2023-01-28T05:53:21;6.03;;;4.07;;
63089;SDS011;49174;43.198;27.824;2023-01-28T05:55:47;5.53;;;3.97;;
63089;SDS011;49174;43.198;27.824;2023-01-28T05:58:14;8.52;;;5.00;;
63089;SDS011;49174;43.198;27.824;2023-01-28T06:00:40;7.10;;;4.72;;
63089;SDS011;49174;43.198;27.824;2023-01-28T06:03:05;7.50;;;4.82;;
63089;SDS011;49174;43.198;27.824;2023-01-28T06:05:31;5.72;;;4.05;;
63089;SDS011;49174;43.198;27.824;2023-01-28T06:08:02;5.40;;;3.72;;
63089;SDS011;49174;43.198;27.824;2023-01-28T06:10:28;6.13;;;4.50;;
63089;SDS011;49174;43.198;27.824;2023-01-28T06:12:54;7.35;;;4.78;;
63089;SDS011;49174;43.198;27.824;2023-01-28T06:15:20;7.88;;;5.68;;
63089;SDS011;49174;43.198;27.824;2023-01-28T06:17:46;8.55;;;5.97;;
63089;SDS011;49174;43.198;27.824;2023-01-28T06:20:11;7.00;;;5.45;;
63089;SDS011;49174;43.198;27.824;2023-01-28T06:22:37;6.35;;;4.55;;
63089;SDS011;49174;43.198;27.824;2023-01-28T06:25:03;6.63;;;4.65;;
63089;SDS011;49174;43.198;27.824;2023-01-28T06:27:29;9.15;;;6.22;;
63089;SDS011;49174;43.198;27.824;2023-01-28T06:29:55;7.07;;;4.80;;
63089;SDS011;49174;43.198;27.824;2023-01-28T06:32:20;7.90;;;5.55;;
63089;SDS011;49174;43.198;27.824;2023-01-28T06:34:46;7.93;;;5.82;;
63089;SDS011;49174;43.198;27.824;2023-01-28T06:37:12;8.60;;;5.50;;
63089;SDS011;49174;43.198;27.824;2023-01-28T06:39:38;6.95;;;4.78;;
63089;SDS011;49174;43.198;27.824;2023-01-28T06:42:04;7.35;;;5.30;;
63089;SDS011;49174;43.198;27.824;2023-01-28T06:44:29;9.15;;;6.78;;
63089;SDS011;49174;43.198;27.824;2023-01-28T06:46:55;8.80;;;5.35;;
63089;SDS011;49174;43.198;27.824;2023-01-28T06:49:21;7.53;;;5.32;;
63089;SDS011;49174;43.198;27.824;2023-01-28T06:51:46;6.88;;;5.25;;
63089;SDS011;49174;43.198;27.824;2023-01-28T06:54:13;9.73;;;6.35;;
63089;SDS011;49174;43.198;27.824;2023-01-28T06:56:38;30.63;;;20.45;;
63089;SDS011;49174;43.198;27.824;2023-01-28T06:59:04;8.80;;;6.28;;
63089;SDS011;49174;43.198;27.824;2023-01-28T07:01:30;6.88;;;5.55;;
63089;SDS011;49174;43.198;27.824;2023-01-28T07:03:56;10.23;;;7.55;;
63089;SDS011;49174;43.198;27.824;2023-01-28T07:06:21;6.95;;;5.30;;
63089;SDS011;49174;43.198;27.824;2023-01-28T07:08:47;6.53;;;4.60;;
63089;SDS011;49174;43.198;27.824;2023-01-28T07:11:13;7.95;;;5.70;;
63089;SDS011;49174;43.198;27.824;2023-01-28T07:13:39;8.77;;;5.05;;
63089;SDS011;49174;43.198;27.824;2023-01-28T07:16:05;8.60;;;5.10;;
63089;SDS011;49174;43.198;27.824;2023-01-28T07:18:32;7.65;;;4.32;;
63089;SDS011;49174;43.198;27.824;2023-01-28T07:20:57;6.65;;;4.47;;
63089;SDS011;49174;43.198;27.824;2023-01-28T07:23:24;7.18;;;5.55;;
63089;SDS011;49174;43.198;27.824;2023-01-28T07:25:49;10.82;;;5.95;;
63089;SDS011;49174;43.198;27.824;2023-01-28T07:28:15;7.30;;;4.93;;
63089;SDS011;49174;43.198;27.824;2023-01-28T07:30:48;25.30;;;15.27;;
63089;SDS011;49174;43.198;27.824;2023-01-28T07:33:15;19.95;;;12.60;;
63089;SDS011;49174;43.198;27.824;2023-01-28T07:35:41;11.38;;;8.45;;
63089;SDS011;49174;43.198;27.824;2023-01-28T07:38:06;10.52;;;7.80;;
63089;SDS011;49174;43.198;27.824;2023-01-28T07:40:32;12.23;;;7.60;;
63089;SDS011;49174;43.198;27.824;2023-01-28T07:42:57;12.30;;;7.85;;
63089;SDS011;49174;43.198;27.824;2023-01-28T07:45:23;7.97;;;5.95;;
63089;SDS011;49174;43.198;27.824;2023-01-28T07:47:57;9.18;;;6.78;;
63089;SDS011;49174;43.198;27.824;2023-01-28T07:50:25;8.38;;;5.90;;
63089;SDS011;49174;43.198;27.824;2023-01-28T07:52:54;9.48;;;6.15;;
63089;SDS011;49174;43.198;27.824;2023-01-28T07:55:21;8.70;;;5.97;;
63089;SDS011;49174;43.198;27.824;2023-01-28T07:57:47;8.52;;;5.68;;
63089;SDS011;49174;43.198;27.824;2023-01-28T08:00:16;10.23;;;6.32;;
63089;SDS011;49174;43.198;27.824;2023-01-28T08:02:43;10.80;;;6.15;;
63089;SDS011;49174;43.198;27.824;2023-01-28T08:05:18;13.80;;;8.48;;
63089;SDS011;49174;43.198;27.824;2023-01-28T08:07:47;11.20;;;7.15;;
63089;SDS011;49174;43.198;27.824;2023-01-28T08:10:14;9.70;;;6.65;;
63089;SDS011;49174;43.198;27.824;2023-01-28T08:12:49;9.57;;;6.65;;
63089;SDS011;49174;43.198;27.824;2023-01-28T08:15:25;11.07;;;7.13;;
63089;SDS011;49174;43.198;27.824;2023-01-28T08:17:52;9.68;;;6.88;;
63089;SDS011;49174;43.198;27.824;2023-01-28T08:20:19;10.02;;;7.05;;
63089;SDS011;49174;43.198;27.824;2023-01-28T08:22:45;10.65;;;7.20;;
63089;SDS011;49174;43.198;27.824;2023-01-28T08:25:11;10.45;;;6.65;;
63089;SDS011;49174;43.198;27.824;2023-01-28T08:27:36;12.38;;;8.20;;
63089;SDS011;49174;43.198;27.824;2023-01-28T08:30:06;13.52;;;9.50;;
63089;SDS011;49174;43.198;27.824;2023-01-28T08:32:34;11.95;;;7.90;;
63089;SDS011;49174;43.198;27.824;2023-01-28T08:35:00;9.82;;;6.93;;
63089;SDS011;49174;43.198;27.824;2023-01-28T08:37:27;13.43;;;9.05;;
63089;SDS011;49174;43.198;27.824;2023-01-28T08:39:52;17.45;;;10.05;;
63089;SDS011;49174;43.198;27.824;2023-01-28T08:42:18;12.43;;;8.00;;
63089;SDS011;49174;43.198;27.824;2023-01-28T08:44:44;11.30;;;7.43;;
63089;SDS011;49174;43.198;27.824;2023-01-28T08:47:09;11.57;;;7.43;;
63089;SDS011;49174;43.198;27.824;2023-01-28T08:49:35;13.02;;;7.53;;
63089;SDS011;49174;43.198;27.824;2023-01-28T08:52:00;14.98;;;12.30;;
63089;SDS011;49174;43.198;27.824;2023-01-28T08:54:26;15.40;;;12.50;;
63089;SDS011;49174;43.198;27.824;2023-01-28T08:56:51;30.63;;;27.58;;
63089;SDS011;49174;43.198;27.824;2023-01-28T08:59:17;21.30;;;19.00;;
63089;SDS011;49174;43.198;27.824;2023-01-28T09:01:43;12.57;;;9.20;;
63089;SDS011;49174;43.198;27.824;2023-01-28T09:04:08;12.15;;;8.80;;
63089;SDS011;49174;43.198;27.824;2023-01-28T09:06:34;12.65;;;10.45;;
63089;SDS011;49174;43.198;27.824;2023-01-28T09:09:00;24.73;;;19.08;;
63089;SDS011;49174;43.198;27.824;2023-01-28T09:11:26;11.70;;;8.27;;
63089;SDS011;49174;43.198;27.824;2023-01-28T09:13:53;11.20;;;7.40;;
63089;SDS011;49174;43.198;27.824;2023-01-28T09:16:18;10.32;;;7.25;;
63089;SDS011;49174;43.198;27.824;2023-01-28T09:18:44;9.00;;;6.55;;
63089;SDS011;49174;43.198;27.824;2023-01-28T09:21:12;10.45;;;7.85;;
63089;SDS011;49174;43.198;27.824;2023-01-28T09:23:38;11.18;;;7.40;;
63089;SDS011;49174;43.198;27.824;2023-01-28T09:26:04;11.00;;;7.13;;
63089;SDS011;49174;43.198;27.824;2023-01-28T09:28:31;11.77;;;7.35;;
63089;SDS011;49174;43.198;27.824;2023-01-28T09:31:05;9.77;;;7.15;;
63089;SDS011;49174;43.198;27.824;2023-01-28T09:33:33;12.57;;;7.10;;
63089;SDS011;49174;43.198;27.824;2023-01-28T09:36:00;11.77;;;7.50;;
63089;SDS011;49174;43.198;27.824;2023-01-28T09:38:27;10.95;;;7.32;;
63089;SDS011;49174;43.198;27.824;2023-01-28T09:40:54;12.48;;;8.20;;
63089;SDS011;49174;43.198;27.824;2023-01-28T09:43:40;11.32;;;8.00;;
63089;SDS011;49174;43.198;27.824;2023-01-28T09:46:21;11.38;;;7.85;;
63089;SDS011;49174;43.198;27.824;2023-01-28T09:54:50;12.35;;;8.20;;
63089;SDS011;49174;43.198;27.824;2023-01-28T09:57:08;12.95;;;8.30;;
63089;SDS011;49174;43.198;27.824;2023-01-28T09:59:38;13.57;;;8.10;;
63089;SDS011;49174;43.198;27.824;2023-01-28T10:10:49;14.98;;;8.75;;
63089;SDS011;49174;43.198;27.824;2023-01-28T10:16:08;13.10;;;8.90;;
63089;SDS011;49174;43.198;27.824;2023-01-28T10:19:25;11.05;;;8.88;;
63089;SDS011;49174;43.198;27.824;2023-01-28T10:27:14;12.82;;;9.00;;
63089;SDS011;49174;43.198;27.824;2023-01-28T10:29:41;12.25;;;8.05;;
63089;SDS011;49174;43.198;27.824;2023-01-28T10:34:46;12.38;;;8.60;;
63089;SDS011;49174;43.198;27.824;2023-01-28T10:37:12;12.88;;;8.10;;
63089;SDS011;49174;43.198;27.824;2023-01-28T10:39:40;14.25;;;9.27;;
63089;SDS011;49174;43.198;27.824;2023-01-28T10:42:49;16.30;;;8.85;;
63089;SDS011;49174;43.198;27.824;2023-01-28T10:47:42;12.10;;;8.10;;
63089;SDS011;49174;43.198;27.824;2023-01-28T10:50:23;14.40;;;9.32;;
63089;SDS011;49174;43.198;27.824;2023-01-28T10:52:57;13.88;;;8.98;;
63089;SDS011;49174;43.198;27.824;2023-01-28T10:58:22;13.52;;;8.18;;
63089;SDS011;49174;43.198;27.824;2023-01-28T11:00:56;14.60;;;8.98;;
63089;SDS011;49174;43.198;27.824;2023-01-28T11:03:25;18.38;;;10.27;;
63089;SDS011;49174;43.198;27.824;2023-01-28T11:05:52;15.48;;;10.32;;
63089;SDS011;49174;43.198;27.824;2023-01-28T11:08:20;15.02;;;10.13;;
63089;SDS011;49174;43.198;27.824;2023-01-28T11:10:47;14.48;;;9.63;;
63089;SDS011;49174;43.198;27.824;2023-01-28T11:13:29;14.77;;;10.15;;
63089;SDS011;49174;43.198;27.824;2023-01-28T11:16:04;13.38;;;8.45;;
63089;SDS011;49174;43.198;27.824;2023-01-28T11:18:45;15.85;;;10.07;;
63089;SDS011;49174;43.198;27.824;2023-01-28T11:21:24;14.35;;;9.98;;
63089;SDS011;49174;43.198;27.824;2023-01-28T11:24:02;17.23;;;9.48;;
63089;SDS011;49174;43.198;27.824;2023-01-28T11:26:31;14.95;;;9.68;;
63089;SDS011;49174;43.198;27.824;2023-01-28T11:29:00;14.07;;;9.10;;
63089;SDS011;49174;43.198;27.824;2023-01-28T11:31:27;14.85;;;9.32;;
63089;SDS011;49174;43.198;27.824;2023-01-28T11:33:59;14.23;;;9.00;;
63089;SDS011;49174;43.198;27.824;2023-01-28T11:36:29;13.55;;;9.95;;
63089;SDS011;49174;43.198;27.824;2023-01-28T11:39:00;15.35;;;10.65;;
63089;SDS011;49174;43.198;27.824;2023-01-28T11:41:36;14.73;;;9.73;;
63089;SDS011;49174;43.198;27.824;2023-01-28T11:44:16;14.63;;;9.82;;
63089;SDS011;49174;43.198;27.824;2023-01-28T11:47:26;13.50;;;8.77;;
63089;SDS011;49174;43.198;27.824;2023-01-28T11:52:22;15.18;;;10.15;;
63089;SDS011;49174;43.198;27.824;2023-01-28T11:58:00;16.98;;;10.68;;
63089;SDS011;49174;43.198;27.824;2023-01-28T12:04:08;16.35;;;10.75;;
63089;SDS011;49174;43.198;27.824;2023-01-28T12:06:42;15.48;;;9.65;;
63089;SDS011;49174;43.198;27.824;2023-01-28T12:09:38;15.45;;;10.35;;
63089;SDS011;49174;43.198;27.824;2023-01-28T12:15:22;17.50;;;12.20;;
63089;SDS011;49174;43.198;27.824;2023-01-28T12:20:31;14.32;;;9.60;;
63089;SDS011;49174;43.198;27.824;2023-01-28T12:25:41;13.52;;;9.45;;
63089;SDS011;49174;43.198;27.824;2023-01-28T12:39:50;16.00;;;9.87;;
63089;SDS011;49174;43.198;27.824;2023-01-28T12:45:47;13.55;;;9.15;;
63089;SDS011;49174;43.198;27.824;2023-01-28T12:48:13;15.77;;;9.93;;
63089;SDS011;49174;43.198;27.824;2023-01-28T12:50:45;16.45;;;10.43;;
63089;SDS011;49174;43.198;27.824;2023-01-28T12:53:28;15.85;;;10.15;;
63089;SDS011;49174;43.198;27.824;2023-01-28T12:58:47;14.77;;;10.45;;
63089;SDS011;49174;43.198;27.824;2023-01-28T13:01:23;13.20;;;8.55;;
63089;SDS011;49174;43.198;27.824;2023-01-28T13:03:55;15.90;;;10.15;;
63089;SDS011;49174;43.198;27.824;2023-01-28T13:06:30;16.80;;;10.65;;
63089;SDS011;49174;43.198;27.824;2023-01-28T13:09:01;17.15;;;10.25;;
63089;SDS011;49174;43.198;27.824;2023-01-28T13:11:35;14.25;;;9.93;;
63089;SDS011;49174;43.198;27.824;2023-01-28T13:14:02;16.30;;;10.93;;
63089;SDS011;49174;43.198;27.824;2023-01-28T13:16:29;15.65;;;10.55;;
63089;SDS011;49174;43.198;27.824;2023-01-28T13:19:03;17.35;;;10.82;;
63089;SDS011;49174;43.198;27.824;2023-01-28T13:21:34;15.80;;;10.73;;
63089;SDS011;49174;43.198;27.824;2023-01-28T13:29:05;15.10;;;10.70;;
63089;SDS011;49174;43.198;27.824;2023-01-28T13:31:45;15.55;;;11.18;;
63089;SDS011;49174;43.198;27.824;2023-01-28T13:37:04;14.75;;;10.68;;
63089;SDS011;49174;43.198;27.824;2023-01-28T13:39:52;16.58;;;10.52;;
63089;SDS011;49174;43.198;27.824;2023-01-28T13:42:25;14.95;;;9.20;;
63089;SDS011;49174;43.198;27.824;2023-01-28T13:44:55;15.85;;;10.35;;
63089;SDS011;49174;43.198;27.824;2023-01-28T13:47:54;17.77;;;11.32;;
63089;SDS011;49174;43.198;27.824;2023-01-28T13:50:29;16.80;;;10.63;;
63089;SDS011;49174;43.198;27.824;2023-01-28T13:53:03;16.15;;;10.57;;
63089;SDS011;49174;43.198;27.824;2023-01-28T13:55:41;15.02;;;10.02;;
63089;SDS011;49174;43.198;27.824;2023-01-28T14:09:09;17.08;;;10.65;;
63089;SDS011;49174;43.198;27.824;2023-01-28T14:19:51;18.30;;;11.73;;
63089;SDS011;49174;43.198;27.824;2023-01-28T14:22:19;17.77;;;12.15;;
63089;SDS011;49174;43.198;27.824;2023-01-28T14:24:45;18.95;;;11.80;;
63089;SDS011;49174;43.198;27.824;2023-01-28T14:29:54;15.70;;;10.90;;
63089;SDS011;49174;43.198;27.824;2023-01-28T14:32:50;64.47;;;35.17;;
63089;SDS011;49174;43.198;27.824;2023-01-28T14:35:19;22.60;;;14.35;;
63089;SDS011;49174;43.198;27.824;2023-01-28T14:37:58;14.38;;;9.57;;
63089;SDS011;49174;43.198;27.824;2023-01-28T14:40:24;16.60;;;10.90;;
63089;SDS011;49174;43.198;27.824;2023-01-28T14:42:53;17.58;;;10.50;;
63089;SDS011;49174;43.198;27.824;2023-01-28T14:48:10;18.60;;;10.80;;
63089;SDS011;49174;43.198;27.824;2023-01-28T14:50:50;17.63;;;10.63;;
63089;SDS011;49174;43.198;27.824;2023-01-28T14:53:23;16.40;;;10.45;;
63089;SDS011;49174;43.198;27.824;2023-01-28T15:01:03;17.15;;;10.05;;
63089;SDS011;49174;43.198;27.824;2023-01-28T15:03:29;17.65;;;11.38;;
63089;SDS011;49174;43.198;27.824;2023-01-28T15:06:05;22.70;;;14.90;;
63089;SDS011;49174;43.198;27.824;2023-01-28T15:08:38;17.85;;;10.85;;
63089;SDS011;49174;43.198;27.824;2023-01-28T15:11:05;17.70;;;12.43;;
63089;SDS011;49174;43.198;27.824;2023-01-28T15:14:27;17.88;;;11.38;;
63089;SDS011;49174;43.198;27.824;2023-01-28T15:28:26;16.52;;;10.60;;
63089;SDS011;49174;43.198;27.824;2023-01-28T15:33:37;18.30;;;11.85;;
63089;SDS011;49174;43.198;27.824;2023-01-28T15:36:04;15.07;;;10.13;;
63089;SDS011;49174;43.198;27.824;2023-01-28T15:41:18;15.32;;;10.77;;
63089;SDS011;49174;43.198;27.824;2023-01-28T15:43:48;17.42;;;10.40;;
63089;SDS011;49174;43.198;27.824;2023-01-28T15:57:24;20.30;;;12.05;;
63089;SDS011;49174;43.198;27.824;2023-01-28T16:07:50;21.85;;;12.32;;
63089;SDS011;49174;43.198;27.824;2023-01-28T16:10:18;19.38;;;11.52;;
63089;SDS011;49174;43.198;27.824;2023-01-28T16:12:49;23.55;;;15.15;;
63089;SDS011;49174;43.198;27.824;2023-01-28T16:15:17;18.65;;;12.02;;
63089;SDS011;49174;43.198;27.824;2023-01-28T16:17:46;25.48;;;12.63;;
63089;SDS011;49174;43.198;27.824;2023-01-28T16:22:59;22.33;;;12.38;;
63089;SDS011;49174;43.198;27.824;2023-01-28T16:28:35;29.83;;;18.00;;
63089;SDS011;49174;43.198;27.824;2023-01-28T16:31:00;22.77;;;13.30;;
63089;SDS011;49174;43.198;27.824;2023-01-28T16:33:44;26.45;;;14.35;;
63089;SDS011;49174;43.198;27.824;2023-01-28T16:45:20;19.45;;;11.60;;
63089;SDS011;49174;43.198;27.824;2023-01-28T17:08:30;19.17;;;10.68;;
63089;SDS011;49174;43.198;27.824;2023-01-28T18:10:50;12.80;;;8.07;;
63089;SDS011;49174;43.198;27.824;2023-01-28T18:13:16;13.10;;;7.53;;
63089;SDS011;49174;43.198;27.824;2023-01-28T18:15:41;11.85;;;7.55;;
63089;SDS011;49174;43.198;27.824;2023-01-28T18:21:03;11.10;;;7.22;;
63089;SDS011;49174;43.198;27.824;2023-01-28T18:36:28;16.67;;;9.52;;
63089;SDS011;49174;43.198;27.824;2023-01-28T18:50:11;24.90;;;14.27;;
63089;SDS011;49174;43.198;27.824;2023-01-28T19:02:10;26.75;;;13.65;;
63089;SDS011;49174;43.198;27.824;2023-01-28T19:04:38;24.77;;;14.70;;
63089;SDS011;49174;43.198;27.824;2023-01-28T19:07:04;26.92;;;15.25;;
63089;SDS011;49174;43.198;27.824;2023-01-28T19:09:30;26.02;;;14.82;;
63089;SDS011;49174;43.198;27.824;2023-01-28T19:11:56;23.10;;;13.35;;
63089;SDS011;49174;43.198;27.824;2023-01-28T19:54:31;19.40;;;11.70;;
63089;SDS011;49174;43.198;27.824;2023-01-28T20:11:31;20.10;;;12.82;;
63089;SDS011;49174;43.198;27.824;2023-01-28T20:30:34;20.98;;;11.65;;
63089;SDS011;49174;43.198;27.824;2023-01-28T21:38:30;17.40;;;9.98;;
63089;SDS011;49174;43.198;27.824;2023-01-28T21:40:59;14.50;;;9.02;;
